createdAt,value
2023-05-23T00:00:25.968Z,65.30
2023-05-23T00:03:13.586Z,65.59
2023-05-23T00:05:40.777Z,65.90
2023-05-23T00:08:08.184Z,65.93
2023-05-23T00:10:35.163Z,66.16
2023-05-23T00:13:02.973Z,66.27
2023-05-23T00:15:30.194Z,66.42
2023-05-23T00:17:57.845Z,66.53
2023-05-23T00:20:24.889Z,66.66
2023-05-23T00:22:53.433Z,66.71
2023-05-23T00:25:22.171Z,66.88
2023-05-23T00:27:49.390Z,66.92
2023-05-23T00:30:16.645Z,66.94
2023-05-23T00:32:45.434Z,67.00
2023-05-23T00:35:12.378Z,67.13
2023-05-23T00:37:40.570Z,67.43
2023-05-23T00:40:08.432Z,67.64
2023-05-23T00:42:35.903Z,67.57
2023-05-23T00:45:03.141Z,67.56
2023-05-23T00:47:30.916Z,67.69
2023-05-23T00:49:57.997Z,67.78
2023-05-23T00:52:25.844Z,67.98
2023-05-23T00:54:52.892Z,68.09
2023-05-23T00:57:20.636Z,68.17
2023-05-23T00:59:48.364Z,68.14
2023-05-23T01:02:16.102Z,68.27
2023-05-23T01:04:44.339Z,68.24
2023-05-23T01:07:12.460Z,68.44
2023-05-23T01:09:39.734Z,68.51
2023-05-23T01:12:34.791Z,68.74
2023-05-23T01:15:09.198Z,69.02
2023-05-23T01:17:42.406Z,69.05
2023-05-23T01:20:26.041Z,69.16
2023-05-23T01:23:02.231Z,69.48
2023-05-23T01:25:41.644Z,69.59
2023-05-23T01:28:15.125Z,69.71
2023-05-23T01:30:45.524Z,69.92
2023-05-23T01:33:16.439Z,69.79
2023-05-23T01:35:44.006Z,69.99
2023-05-23T01:38:11.280Z,69.89
2023-05-23T01:40:39.727Z,69.99
2023-05-23T01:43:07.476Z,70.11
2023-05-23T01:45:34.848Z,70.37
2023-05-23T01:48:06.281Z,70.36
2023-05-23T01:50:33.840Z,70.54
2023-05-23T01:53:01.550Z,70.62
2023-05-23T01:55:29.206Z,70.54
2023-05-23T01:57:57.509Z,70.86
2023-05-23T02:00:25.166Z,70.98
2023-05-23T02:02:52.926Z,71.25
2023-05-23T02:05:20.616Z,71.20
2023-05-23T02:07:47.897Z,71.34
2023-05-23T02:10:17.649Z,71.48
2023-05-23T02:12:45.271Z,71.34
2023-05-23T02:15:12.246Z,71.50
2023-05-23T02:17:41.498Z,71.55
2023-05-23T02:20:10.140Z,71.74
2023-05-23T02:22:37.379Z,71.98
2023-05-23T02:25:05.061Z,72.27
2023-05-23T02:27:33.412Z,72.45
2023-05-23T02:30:00.310Z,72.61
2023-05-23T02:32:29.736Z,72.91
2023-05-23T02:34:57.594Z,72.92
2023-05-23T02:37:25.307Z,73.02
2023-05-23T02:39:52.325Z,73.14
2023-05-23T02:42:19.613Z,73.22
2023-05-23T02:44:46.837Z,73.38
2023-05-23T02:47:14.233Z,73.47
2023-05-23T02:49:41.155Z,73.68
2023-05-23T02:52:08.735Z,73.86
2023-05-23T02:54:36.581Z,74.06
2023-05-23T02:57:04.381Z,74.31
2023-05-23T02:59:34.329Z,74.39
2023-05-23T03:02:01.579Z,74.36
2023-05-23T03:04:29.698Z,74.39
2023-05-23T03:06:59.650Z,74.36
2023-05-23T03:09:27.269Z,74.24
2023-05-23T03:11:54.761Z,74.23
2023-05-23T03:14:21.919Z,74.30
2023-05-23T03:16:49.924Z,74.40
2023-05-23T03:19:16.961Z,74.30
2023-05-23T03:21:45.668Z,74.53
2023-05-23T03:24:12.730Z,74.51
2023-05-23T03:26:40.169Z,74.55
2023-05-23T03:29:07.472Z,74.56
2023-05-23T03:31:35.095Z,74.56
2023-05-23T03:34:03.101Z,74.58
2023-05-23T03:36:33.313Z,74.69
2023-05-23T03:39:01.153Z,74.58
2023-05-23T03:41:28.825Z,74.34
2023-05-23T03:43:56.160Z,74.01
2023-05-23T03:46:23.736Z,73.81
2023-05-23T03:48:51.508Z,73.44
2023-05-23T03:51:19.008Z,73.07
2023-05-23T03:53:46.086Z,72.86
2023-05-23T03:56:14.803Z,72.16
2023-05-23T03:58:41.713Z,71.82
2023-05-23T04:01:14.875Z,71.35
2023-05-23T04:03:42.385Z,70.49
2023-05-23T04:06:12.344Z,70.11
2023-05-23T04:08:43.744Z,69.50
2023-05-23T04:11:12.432Z,68.76
2023-05-23T04:13:42.834Z,67.89
2023-05-23T04:16:11.808Z,67.86
2023-05-23T04:18:39.416Z,67.39
2023-05-23T04:21:08.607Z,66.15
2023-05-23T04:23:39.959Z,65.98
2023-05-23T04:26:07.959Z,65.20
2023-05-23T04:28:40.944Z,64.34
2023-05-23T04:31:08.597Z,63.96
2023-05-23T04:33:36.904Z,63.47
2023-05-23T04:36:05.300Z,62.66
2023-05-23T04:38:33.463Z,62.85
2023-05-23T04:41:01.341Z,62.68
2023-05-23T04:43:29.436Z,60.83
2023-05-23T04:46:03.967Z,59.31
2023-05-23T04:48:38.875Z,59.74
2023-05-23T04:51:06.668Z,58.19
2023-05-23T04:53:35.322Z,57.01
2023-05-23T04:56:02.967Z,57.74
2023-05-23T04:58:31.966Z,53.69
2023-05-23T05:01:04.461Z,55.32
2023-05-23T05:03:32.748Z,55.53
2023-05-23T05:05:59.979Z,54.65
2023-05-23T05:08:27.623Z,53.56
2023-05-23T05:10:55.945Z,53.45
2023-05-23T05:13:23.711Z,54.58
2023-05-23T05:15:53.690Z,53.88
2023-05-23T05:18:22.156Z,54.55
2023-05-23T05:20:50.161Z,53.28
2023-05-23T05:23:17.307Z,52.78
2023-05-23T05:25:46.372Z,52.33
2023-05-23T05:28:13.635Z,52.69
2023-05-23T05:30:46.398Z,52.42
2023-05-23T05:33:14.242Z,53.01
2023-05-23T05:35:41.970Z,52.54
2023-05-23T05:38:11.075Z,52.19
2023-05-23T05:40:40.137Z,53.12
2023-05-23T05:43:07.614Z,53.02
2023-05-23T05:45:35.225Z,52.97
2023-05-23T05:48:03.175Z,52.43
2023-05-23T05:50:30.646Z,51.25
2023-05-23T05:52:58.173Z,51.65
2023-05-23T05:55:25.798Z,51.45
2023-05-23T05:57:55.644Z,51.46
2023-05-23T06:00:25.331Z,51.29
2023-05-23T06:03:00.262Z,50.95
2023-05-23T06:05:37.570Z,51.28
2023-05-23T06:08:05.015Z,51.48
2023-05-23T06:10:32.237Z,50.97
2023-05-23T06:12:59.909Z,50.71
2023-05-23T06:15:27.636Z,49.54
2023-05-23T06:17:54.858Z,49.84
2023-05-23T06:20:23.093Z,49.30
2023-05-23T06:22:50.380Z,49.66
2023-05-23T06:25:18.529Z,50.28
2023-05-23T06:27:47.577Z,49.82
2023-05-23T06:30:15.175Z,49.68
2023-05-23T06:32:42.118Z,49.55
2023-05-23T06:35:10.564Z,49.06
2023-05-23T06:37:37.499Z,48.47
2023-05-23T06:40:05.621Z,47.99
2023-05-23T06:42:33.129Z,48.34
2023-05-23T06:45:17.659Z,48.41
2023-05-23T06:47:45.887Z,48.44
2023-05-23T06:50:14.568Z,49.06
2023-05-23T06:52:43.327Z,48.78
2023-05-23T06:55:14.695Z,48.68
2023-05-23T06:57:44.584Z,47.90
2023-05-23T07:00:14.211Z,47.46
2023-05-23T07:02:55.777Z,45.96
2023-05-23T07:05:24.241Z,45.33
2023-05-23T07:07:52.145Z,45.73
2023-05-23T07:10:20.710Z,45.69
2023-05-23T07:12:49.718Z,45.66
2023-05-23T07:15:18.129Z,45.33
2023-05-23T07:17:55.875Z,45.50
2023-05-23T07:20:23.789Z,45.27
2023-05-23T07:22:58.310Z,44.63
2023-05-23T07:25:27.034Z,44.58
2023-05-23T07:27:56.077Z,43.37
2023-05-23T07:30:23.857Z,43.88
2023-05-23T07:32:52.506Z,42.92
2023-05-23T07:35:24.137Z,43.28
2023-05-23T07:37:55.694Z,42.84
2023-05-23T07:40:23.341Z,42.84
2023-05-23T07:42:50.427Z,41.70
2023-05-23T07:45:18.119Z,42.70
2023-05-23T07:47:45.803Z,42.59
2023-05-23T07:50:13.872Z,42.51
2023-05-23T07:52:41.608Z,42.37
2023-05-23T07:55:12.605Z,41.82
2023-05-23T07:57:40.183Z,41.89
2023-05-23T08:00:10.284Z,42.01
2023-05-23T08:02:42.325Z,42.63
2023-05-23T08:05:19.385Z,41.52
2023-05-23T08:07:49.300Z,40.87
2023-05-23T08:10:16.923Z,41.14
2023-05-23T08:12:44.021Z,40.16
2023-05-23T08:15:15.451Z,40.74
2023-05-23T08:17:47.259Z,40.84
2023-05-23T08:20:14.987Z,39.78
2023-05-23T08:22:42.176Z,38.74
2023-05-23T08:25:10.710Z,38.90
2023-05-23T08:27:40.289Z,40.00
2023-05-23T08:30:25.833Z,39.72
2023-05-23T08:32:55.597Z,38.94
2023-05-23T08:35:23.744Z,38.26
2023-05-23T08:37:52.402Z,38.75
2023-05-23T08:40:22.152Z,38.61
2023-05-23T08:43:03.112Z,38.65
2023-05-23T08:45:31.300Z,38.17
2023-05-23T08:48:01.142Z,38.50
2023-05-23T08:50:30.925Z,37.81
2023-05-23T08:52:59.500Z,38.14
2023-05-23T08:55:30.153Z,38.13
2023-05-23T08:58:00.478Z,37.92
2023-05-23T09:00:45.708Z,37.42
2023-05-23T09:03:13.147Z,36.69
2023-05-23T09:05:50.320Z,36.85
2023-05-23T09:08:19.277Z,36.49
2023-05-23T09:10:51.426Z,35.79
2023-05-23T09:13:20.503Z,36.02
2023-05-23T09:16:03.867Z,35.43
2023-05-23T09:18:44.830Z,35.45
2023-05-23T09:21:15.796Z,34.10
2023-05-23T09:23:56.384Z,33.87
2023-05-23T09:26:24.762Z,34.42
2023-05-23T09:28:51.982Z,34.26
2023-05-23T09:31:19.653Z,33.00
2023-05-23T09:33:48.463Z,33.84
2023-05-23T09:36:18.469Z,33.67
2023-05-23T09:38:47.344Z,33.39
2023-05-23T09:41:15.524Z,33.58
2023-05-23T09:43:54.174Z,33.69
2023-05-23T09:46:22.558Z,33.84
2023-05-23T09:48:52.370Z,33.63
2023-05-23T09:51:22.608Z,33.82
2023-05-23T09:53:50.610Z,33.70
2023-05-23T09:56:18.731Z,33.43
2023-05-23T09:58:49.975Z,33.25
2023-05-23T10:01:18.511Z,32.98
2023-05-23T10:03:50.656Z,32.79
2023-05-23T10:06:37.553Z,32.88
2023-05-23T10:09:06.891Z,32.75
2023-05-23T10:11:34.358Z,32.78
2023-05-23T10:14:05.238Z,32.65
2023-05-23T10:16:50.945Z,32.63
2023-05-23T10:19:23.090Z,32.44
2023-05-23T10:21:56.501Z,32.23
2023-05-23T10:24:25.225Z,31.84
2023-05-23T10:26:54.202Z,32.71
2023-05-23T10:29:23.380Z,33.23
2023-05-23T10:31:52.104Z,32.70
2023-05-23T10:34:31.593Z,32.84
2023-05-23T10:37:07.306Z,32.82
2023-05-23T10:39:46.391Z,32.68
2023-05-23T10:42:19.872Z,33.39
2023-05-23T10:44:47.154Z,32.53
2023-05-23T10:47:26.327Z,33.11
2023-05-23T10:49:55.669Z,32.50
2023-05-23T10:52:28.269Z,32.83
2023-05-23T10:54:58.838Z,32.91
2023-05-23T10:57:28.103Z,32.60
2023-05-23T10:59:56.106Z,33.35
2023-05-23T11:02:29.136Z,32.37
2023-05-23T11:05:16.105Z,32.35
2023-05-23T11:07:45.423Z,32.53
2023-05-23T11:10:14.757Z,32.12
2023-05-23T11:12:44.781Z,32.50
2023-05-23T11:15:18.328Z,32.99
2023-05-23T11:17:59.279Z,32.90
2023-05-23T11:20:28.805Z,32.71
2023-05-23T11:23:04.156Z,32.56
2023-05-23T11:25:44.670Z,32.14
2023-05-23T11:28:13.300Z,32.41
2023-05-23T11:30:41.914Z,31.97
2023-05-23T11:33:17.285Z,31.75
2023-05-23T11:35:48.882Z,33.11
2023-05-23T11:38:16.930Z,32.57
2023-05-23T11:40:46.755Z,31.50
2023-05-23T11:43:16.885Z,31.69
2023-05-23T11:45:47.091Z,31.87
2023-05-23T11:48:17.009Z,31.65
2023-05-23T11:50:54.518Z,31.97
2023-05-23T11:53:25.501Z,31.64
2023-05-23T11:56:00.578Z,31.53
2023-05-23T11:58:36.109Z,31.73
2023-05-23T12:01:10.912Z,31.28
2023-05-23T12:03:49.360Z,30.82
2023-05-23T12:06:20.920Z,30.63
2023-05-23T12:08:48.478Z,31.72
2023-05-23T12:11:15.948Z,31.48
2023-05-23T12:13:45.037Z,31.43
2023-05-23T12:16:15.006Z,32.10
2023-05-23T12:18:43.323Z,31.89
2023-05-23T12:21:10.787Z,31.29
2023-05-23T12:23:40.208Z,31.45
2023-05-23T12:26:08.179Z,31.36
2023-05-23T12:28:43.743Z,32.14
2023-05-23T12:31:14.299Z,31.83
2023-05-23T12:33:46.126Z,31.89
2023-05-23T12:36:13.424Z,31.87
2023-05-23T12:38:45.648Z,31.52
2023-05-23T12:41:16.636Z,31.09
2023-05-23T12:43:54.445Z,31.04
2023-05-23T12:46:23.576Z,31.19
2023-05-23T12:48:51.473Z,31.17
2023-05-23T12:51:18.809Z,31.24
2023-05-23T12:53:46.437Z,31.53
2023-05-23T12:56:13.646Z,31.50
2023-05-23T12:58:41.338Z,31.65
2023-05-23T13:01:08.545Z,32.62
2023-05-23T13:03:36.762Z,32.52
2023-05-23T13:06:04.080Z,32.59
2023-05-23T13:08:31.795Z,32.48
2023-05-23T13:10:59.259Z,31.98
2023-05-23T13:13:27.117Z,32.20
2023-05-23T13:15:54.270Z,32.56
2023-05-23T13:18:21.894Z,32.82
2023-05-23T13:20:48.896Z,33.21
2023-05-23T13:23:16.255Z,32.42
2023-05-23T13:25:43.992Z,32.44
2023-05-23T13:28:11.624Z,32.10
2023-05-23T13:30:38.813Z,31.99
2023-05-23T13:33:06.630Z,31.91
2023-05-23T13:35:33.864Z,31.78
2023-05-23T13:38:01.624Z,31.95
2023-05-23T13:40:28.636Z,31.09
2023-05-23T13:42:56.568Z,30.62
2023-05-23T13:45:23.711Z,30.59
2023-05-23T13:47:51.444Z,31.32
2023-05-23T13:50:18.917Z,30.61
2023-05-23T13:52:49.639Z,30.60
2023-05-23T13:55:17.498Z,30.54
2023-05-23T13:57:45.294Z,30.77
2023-05-23T14:00:13.471Z,30.94
2023-05-23T14:02:40.784Z,30.62
2023-05-23T14:05:09.486Z,30.89
2023-05-23T14:07:36.982Z,30.57
2023-05-23T14:10:05.327Z,31.21
2023-05-23T14:12:32.597Z,30.68
2023-05-23T14:14:59.614Z,30.51
2023-05-23T14:17:27.401Z,30.50
2023-05-23T14:19:55.301Z,30.50
2023-05-23T14:22:22.616Z,30.09
2023-05-23T14:24:49.803Z,29.77
2023-05-23T14:27:18.577Z,30.01
2023-05-23T14:29:47.151Z,29.65
2023-05-23T14:32:14.745Z,29.33
2023-05-23T14:34:42.032Z,29.61
2023-05-23T14:37:09.542Z,29.78
2023-05-23T14:39:36.522Z,29.65
2023-05-23T14:42:04.174Z,29.23
2023-05-23T14:44:31.831Z,29.18
2023-05-23T14:46:59.115Z,28.20
2023-05-23T14:49:26.357Z,27.56
2023-05-23T14:51:54.197Z,26.42
2023-05-23T14:54:21.445Z,25.01
2023-05-23T14:56:52.035Z,24.78
2023-05-23T14:59:20.231Z,23.67
2023-05-23T15:01:47.632Z,23.00
2023-05-23T15:04:15.166Z,22.35
2023-05-23T15:06:42.923Z,21.83
2023-05-23T15:09:10.721Z,21.90
2023-05-23T15:11:39.197Z,22.05
2023-05-23T15:14:06.858Z,21.63
2023-05-23T15:16:37.092Z,21.66
2023-05-23T15:19:05.850Z,21.49
2023-05-23T15:21:33.603Z,21.35
2023-05-23T15:24:01.257Z,21.47
2023-05-23T15:26:30.246Z,21.93
2023-05-23T15:28:57.627Z,21.88
2023-05-23T15:31:25.284Z,23.62
2023-05-23T15:33:52.414Z,24.99
2023-05-23T15:36:19.710Z,24.72
2023-05-23T15:38:46.701Z,23.92
2023-05-23T15:41:14.224Z,24.21
2023-05-23T15:43:41.250Z,23.71
2023-05-23T15:46:09.249Z,23.56
2023-05-23T15:48:36.822Z,23.20
2023-05-23T15:51:04.473Z,22.43
2023-05-23T15:53:34.405Z,22.58
2023-05-23T15:56:05.115Z,22.39
2023-05-23T15:58:32.744Z,23.73
2023-05-23T16:01:00.307Z,24.18
2023-05-23T16:03:27.287Z,24.65
2023-05-23T16:05:54.913Z,25.77
2023-05-23T16:08:21.928Z,25.94
2023-05-23T16:10:50.538Z,26.41
2023-05-23T16:13:18.285Z,26.54
2023-05-23T16:15:46.062Z,26.65
2023-05-23T16:18:14.865Z,26.39
2023-05-23T16:20:42.608Z,27.22
2023-05-23T16:23:10.814Z,27.64
2023-05-23T16:25:38.384Z,28.16
2023-05-23T16:28:05.898Z,29.09
2023-05-23T16:30:33.490Z,29.39
2023-05-23T16:33:00.824Z,29.83
2023-05-23T16:35:28.792Z,30.23
2023-05-23T16:37:56.085Z,30.30
2023-05-23T16:40:23.485Z,30.78
2023-05-23T16:42:50.677Z,30.21
2023-05-23T16:45:18.347Z,30.71
2023-05-23T16:47:45.944Z,30.98
2023-05-23T16:50:13.301Z,31.13
2023-05-23T16:52:40.567Z,31.50
2023-05-23T16:55:08.480Z,31.59
2023-05-23T16:57:36.403Z,31.40
2023-05-23T17:00:05.631Z,31.43
2023-05-23T17:02:33.230Z,31.74
2023-05-23T17:05:00.747Z,31.99
2023-05-23T17:07:28.310Z,32.40
2023-05-23T17:09:55.953Z,32.31
2023-05-23T17:12:23.136Z,32.77
2023-05-23T17:14:50.880Z,32.92
2023-05-23T17:17:18.049Z,33.26
2023-05-23T17:19:45.643Z,33.22
2023-05-23T17:22:13.396Z,33.55
2023-05-23T17:24:40.789Z,33.52
2023-05-23T17:27:08.446Z,33.93
2023-05-23T17:29:36.177Z,34.31
2023-05-23T17:32:03.457Z,34.60
2023-05-23T17:34:31.383Z,34.36
2023-05-23T17:36:58.902Z,34.45
2023-05-23T17:39:26.717Z,34.72
2023-05-23T17:41:53.982Z,35.01
2023-05-23T17:44:23.226Z,35.11
2023-05-23T17:46:50.647Z,35.20
2023-05-23T17:49:18.973Z,35.38
2023-05-23T17:51:46.372Z,35.52
2023-05-23T17:54:13.947Z,35.57
2023-05-23T17:56:43.201Z,35.79
2023-05-23T17:59:10.562Z,35.97
2023-05-23T18:01:37.824Z,36.12
2023-05-23T18:04:05.838Z,36.03
2023-05-23T18:06:32.971Z,36.11
2023-05-23T18:09:00.207Z,36.29
2023-05-23T18:11:27.647Z,36.42
2023-05-23T18:13:55.615Z,36.47
2023-05-23T18:16:22.869Z,36.54
2023-05-23T18:18:50.365Z,36.69
2023-05-23T18:21:18.276Z,36.81
2023-05-23T18:23:45.950Z,37.07
2023-05-23T18:26:12.847Z,37.34
2023-05-23T18:28:40.313Z,37.64
2023-05-23T18:31:07.787Z,38.07
2023-05-23T18:33:35.383Z,38.46
2023-05-23T18:36:03.320Z,38.91
2023-05-23T18:38:30.989Z,39.13
2023-05-23T18:40:58.320Z,39.54
2023-05-23T18:43:25.887Z,39.65
2023-05-23T18:45:52.848Z,39.84
2023-05-23T18:48:20.740Z,39.58
2023-05-23T18:50:48.195Z,39.56
2023-05-23T18:53:16.073Z,39.75
2023-05-23T18:55:43.758Z,40.01
2023-05-23T18:58:11.936Z,40.39
2023-05-23T19:00:39.482Z,40.56
2023-05-23T19:03:07.396Z,40.86
2023-05-23T19:05:34.638Z,41.15
2023-05-23T19:08:03.652Z,41.20
2023-05-23T19:10:31.018Z,41.03
2023-05-23T19:12:59.293Z,41.54
2023-05-23T19:15:26.270Z,41.14
2023-05-23T19:17:53.868Z,40.51
2023-05-23T19:20:21.091Z,40.51
2023-05-23T19:22:52.229Z,40.68
2023-05-23T19:25:21.619Z,40.68
2023-05-23T19:27:48.911Z,40.79
2023-05-23T19:30:16.546Z,40.93
2023-05-23T19:32:43.917Z,41.07
2023-05-23T19:35:10.871Z,41.52
2023-05-23T19:37:38.397Z,41.49
2023-05-23T19:40:06.299Z,41.40
2023-05-23T19:42:33.849Z,41.71
2023-05-23T19:45:01.346Z,41.84
2023-05-23T19:47:30.805Z,41.85
2023-05-23T19:50:00.583Z,42.23
2023-05-23T19:52:28.046Z,42.19
2023-05-23T19:54:55.522Z,42.60
2023-05-23T19:57:22.912Z,43.05
2023-05-23T19:59:50.077Z,42.83
2023-05-23T20:02:17.597Z,43.09
2023-05-23T20:04:45.061Z,43.11
2023-05-23T20:07:12.443Z,43.24
2023-05-23T20:09:40.225Z,43.48
2023-05-23T20:12:08.210Z,43.53
2023-05-23T20:14:35.382Z,44.13
2023-05-23T20:17:02.628Z,44.67
2023-05-23T20:19:29.929Z,45.01
2023-05-23T20:21:57.528Z,45.52
2023-05-23T20:24:24.696Z,45.90
2023-05-23T20:26:52.481Z,45.91
2023-05-23T20:29:20.048Z,45.73
2023-05-23T20:31:47.817Z,45.77
2023-05-23T20:34:15.172Z,45.51
2023-05-23T20:36:42.796Z,45.40
2023-05-23T20:39:10.273Z,45.25
2023-05-23T20:41:37.614Z,45.32
2023-05-23T20:44:05.082Z,45.42
2023-05-23T20:46:33.687Z,45.57
2023-05-23T20:49:01.305Z,45.74
2023-05-23T20:51:28.701Z,45.81
2023-05-23T20:53:56.198Z,46.15
2023-05-23T20:56:24.704Z,46.47
2023-05-23T20:58:51.841Z,46.52
2023-05-23T21:01:23.116Z,46.70
2023-05-23T21:03:50.551Z,46.93
2023-05-23T21:06:17.754Z,46.78
2023-05-23T21:08:45.009Z,47.14
2023-05-23T21:11:12.305Z,46.97
2023-05-23T21:13:40.064Z,47.36
2023-05-23T21:16:08.865Z,47.33
2023-05-23T21:18:35.988Z,47.50
2023-05-23T21:21:03.390Z,47.50
2023-05-23T21:23:31.050Z,47.51
2023-05-23T21:25:58.204Z,47.38
2023-05-23T21:28:25.509Z,47.53
2023-05-23T21:30:53.276Z,47.52
2023-05-23T21:33:21.202Z,47.58
2023-05-23T21:35:48.562Z,47.60
2023-05-23T21:38:16.009Z,47.75
2023-05-23T21:40:43.636Z,47.92
2023-05-23T21:43:11.021Z,47.92
2023-05-23T21:45:39.631Z,48.24
2023-05-23T21:48:06.857Z,47.66
2023-05-23T21:50:34.144Z,47.80
2023-05-23T21:53:01.355Z,48.37
2023-05-23T21:55:28.719Z,48.50
2023-05-23T21:57:55.984Z,48.36
2023-05-23T22:00:23.920Z,48.34
2023-05-23T22:02:51.249Z,48.38
2023-05-23T22:05:18.274Z,48.41
2023-05-23T22:07:46.117Z,48.58
2023-05-23T22:10:13.792Z,48.75
2023-05-23T22:12:41.097Z,48.66
2023-05-23T22:15:09.036Z,49.01
2023-05-23T22:17:36.587Z,49.08
2023-05-23T22:20:05.413Z,49.10
2023-05-23T22:22:32.937Z,49.37
2023-05-23T22:25:00.245Z,50.05
2023-05-23T22:27:28.012Z,49.58
2023-05-23T22:29:55.228Z,50.08
2023-05-23T22:32:22.870Z,49.93
2023-05-23T22:34:49.890Z,49.92
2023-05-23T22:37:17.742Z,50.02
2023-05-23T22:39:44.590Z,49.90
2023-05-23T22:42:12.047Z,49.81
2023-05-23T22:44:39.004Z,49.92
2023-05-23T22:47:06.640Z,49.86
2023-05-23T22:49:33.996Z,49.76
2023-05-23T22:52:01.308Z,49.76
2023-05-23T22:54:28.267Z,49.64
2023-05-23T22:56:56.009Z,49.69
2023-05-23T22:59:23.152Z,49.77
2023-05-23T23:01:51.340Z,49.88
2023-05-23T23:04:23.808Z,49.91
2023-05-23T23:06:53.790Z,50.02
2023-05-23T23:09:21.269Z,49.96
2023-05-23T23:11:49.106Z,49.96
2023-05-23T23:14:16.009Z,49.96
2023-05-23T23:16:43.490Z,50.00
2023-05-23T23:19:10.679Z,49.97
2023-05-23T23:21:39.097Z,50.16
2023-05-23T23:24:06.366Z,50.30
2023-05-23T23:26:33.655Z,50.29
2023-05-23T23:29:00.924Z,50.41
2023-05-23T23:31:28.393Z,50.61
2023-05-23T23:33:55.758Z,50.66
2023-05-23T23:36:23.114Z,50.76
2023-05-23T23:38:51.337Z,50.82
2023-05-23T23:41:18.653Z,50.95
2023-05-23T23:43:46.155Z,51.02
2023-05-23T23:46:13.957Z,51.05
2023-05-23T23:48:41.081Z,51.07
2023-05-23T23:51:08.365Z,51.03
2023-05-23T23:53:36.084Z,51.12
2023-05-23T23:56:03.412Z,51.17
2023-05-23T23:58:31.611Z,51.55
